createdAt,value
2019-01-17T00:00:47.765Z,97.61
2019-01-17T00:10:47.818Z,97.63
2019-01-17T00:20:47.779Z,97.60
2019-01-17T00:30:47.766Z,97.79
2019-01-17T00:40:47.742Z,98.29
2019-01-17T00:50:47.833Z,98.46
2019-01-17T01:00:47.753Z,98.45
2019-01-17T01:10:47.719Z,98.44
2019-01-17T01:20:47.760Z,98.83
2019-01-17T01:30:47.888Z,98.83
2019-01-17T01:40:47.822Z,99.22
2019-01-17T01:50:47.715Z,99.80
2019-01-17T02:00:47.773Z,100.00
2019-01-17T02:10:47.741Z,100.00
2019-01-17T02:20:47.657Z,100.00
2019-01-17T02:30:47.775Z,100.00
2019-01-17T02:40:47.642Z,100.00
2019-01-17T02:50:47.644Z,100.00
2019-01-17T03:00:47.716Z,99.84
2019-01-17T03:10:47.728Z,99.46
2019-01-17T03:20:47.596Z,99.17
2019-01-17T03:30:48.710Z,99.01
2019-01-17T03:40:47.670Z,99.23
2019-01-17T03:50:47.830Z,99.16
2019-01-17T04:00:47.709Z,98.77
2019-01-17T04:10:47.791Z,99.22
2019-01-17T04:20:47.732Z,98.73
2019-01-17T04:30:47.704Z,98.54
2019-01-17T04:40:47.907Z,98.24
2019-01-17T04:50:47.702Z,96.89
2019-01-17T05:00:47.904Z,96.81
2019-01-17T05:10:47.694Z,96.10
2019-01-17T05:20:47.712Z,95.98
2019-01-17T05:30:47.813Z,95.89
2019-01-17T05:40:47.808Z,96.03
2019-01-17T05:50:47.754Z,95.99
2019-01-17T06:00:47.983Z,95.82
2019-01-17T06:10:47.669Z,95.09
2019-01-17T06:20:47.663Z,95.03
2019-01-17T06:30:47.680Z,94.83
2019-01-17T06:40:48.500Z,95.49
2019-01-17T06:50:47.599Z,95.38
2019-01-17T07:00:47.875Z,95.39
2019-01-17T07:10:47.736Z,95.76
2019-01-17T07:20:47.752Z,94.96
2019-01-17T07:30:47.890Z,93.77
2019-01-17T07:40:48.673Z,94.05
2019-01-17T07:50:48.688Z,93.80
2019-01-17T08:00:47.600Z,94.12
2019-01-17T08:10:47.609Z,94.02
2019-01-17T08:20:47.620Z,94.44
2019-01-17T08:30:47.733Z,93.31
2019-01-17T08:40:47.806Z,92.09
2019-01-17T08:50:47.724Z,91.97
2019-01-17T09:00:47.744Z,92.26
2019-01-17T09:10:48.259Z,92.52
2019-01-17T09:20:47.775Z,94.00
2019-01-17T09:30:47.741Z,93.98
2019-01-17T09:40:47.703Z,93.61
2019-01-17T09:50:47.568Z,94.77
2019-01-17T10:00:47.724Z,95.42
2019-01-17T10:10:47.921Z,96.47
2019-01-17T10:20:47.725Z,96.17
2019-01-17T10:30:47.564Z,96.02
2019-01-17T10:40:47.618Z,95.80
2019-01-17T10:50:47.737Z,95.95
2019-01-17T11:00:47.556Z,95.97
2019-01-17T11:10:47.746Z,96.76
2019-01-17T11:20:47.647Z,96.66
2019-01-17T11:30:47.696Z,97.39
2019-01-17T11:40:47.672Z,97.92
2019-01-17T11:50:47.678Z,98.93
2019-01-17T12:00:47.803Z,100.00
2019-01-17T12:10:47.832Z,100.00
2019-01-17T12:20:47.709Z,100.00
2019-01-17T12:30:47.589Z,100.00
2019-01-17T12:40:47.735Z,99.92
2019-01-17T12:50:47.596Z,99.37
2019-01-17T13:00:47.677Z,99.57
2019-01-17T13:10:47.532Z,99.94
2019-01-17T13:20:47.600Z,100.00
2019-01-17T13:30:47.568Z,99.88
2019-01-17T13:40:47.665Z,99.79
2019-01-17T13:50:47.655Z,99.13
2019-01-17T14:00:47.512Z,99.37
2019-01-17T14:10:47.753Z,99.83
2019-01-17T14:20:47.598Z,98.64
2019-01-17T14:30:47.682Z,98.03
2019-01-17T14:40:47.715Z,96.90
2019-01-17T14:50:47.542Z,96.96
2019-01-17T15:00:47.547Z,97.97
2019-01-17T15:10:47.583Z,98.00
2019-01-17T15:20:47.571Z,97.23
2019-01-17T15:30:47.505Z,96.32
2019-01-17T15:40:48.180Z,95.90
2019-01-17T15:50:47.634Z,95.49
2019-01-17T16:00:47.609Z,95.83
2019-01-17T16:10:47.535Z,96.72
2019-01-17T16:20:47.538Z,96.44
2019-01-17T16:30:48.376Z,97.32
2019-01-17T16:40:47.563Z,98.28
2019-01-17T16:50:47.602Z,97.75
2019-01-17T17:00:47.500Z,96.74
2019-01-17T17:10:47.575Z,95.85
2019-01-17T17:20:47.406Z,95.02
2019-01-17T17:30:48.152Z,93.30
2019-01-17T17:40:47.647Z,90.52
2019-01-17T17:50:47.463Z,89.26
2019-01-17T18:00:48.152Z,88.33
2019-01-17T18:10:47.624Z,93.64
2019-01-17T18:20:49.077Z,98.00
2019-01-17T18:30:47.495Z,99.59
2019-01-17T18:40:47.525Z,100.00
2019-01-17T18:50:47.523Z,100.00
2019-01-17T19:00:48.232Z,100.00
2019-01-17T19:10:49.312Z,100.00
2019-01-17T19:20:47.464Z,100.00
2019-01-17T19:30:47.406Z,100.00
2019-01-17T19:40:47.412Z,100.00
2019-01-17T19:50:47.466Z,100.00
2019-01-17T20:00:47.453Z,100.00
2019-01-17T20:10:47.555Z,100.00
2019-01-17T20:20:47.405Z,100.00
2019-01-17T20:30:47.400Z,100.00
2019-01-17T20:40:48.193Z,100.00
2019-01-17T20:50:47.490Z,100.00
2019-01-17T21:00:47.444Z,100.00
2019-01-17T21:10:48.537Z,100.00
2019-01-17T21:20:47.459Z,100.00
2019-01-17T21:30:50.369Z,100.00
2019-01-17T21:40:47.432Z,100.00
2019-01-17T21:50:47.445Z,100.00
2019-01-17T22:00:47.457Z,100.00
2019-01-17T22:10:47.488Z,100.00
2019-01-17T22:20:47.399Z,100.00
2019-01-17T22:30:47.679Z,100.00
2019-01-17T22:40:47.454Z,100.00
2019-01-17T22:50:47.383Z,100.00
2019-01-17T23:00:47.541Z,100.00
2019-01-17T23:10:49.620Z,100.00
2019-01-17T23:20:47.398Z,100.00
2019-01-17T23:30:47.367Z,100.00
2019-01-17T23:40:47.418Z,100.00
2019-01-17T23:50:47.476Z,100.00
